sensor_id;sensor_type;location;lat;lon;timestamp;temperature;humidity
52107;DHT22;38105;52.968;5.974;2022-08-20T00:00:25;20.10;99.90
52107;DHT22;38105;52.968;5.974;2022-08-20T00:03:01;20.10;99.90
52107;DHT22;38105;52.968;5.974;2022-08-20T00:05:33;20.00;99.90
52107;DHT22;38105;52.968;5.974;2022-08-20T00:08:00;20.00;99.90
52107;DHT22;38105;52.968;5.974;2022-08-20T00:10:27;19.90;99.90
52107;DHT22;38105;52.968;5.974;2022-08-20T00:12:54;20.00;99.90
52107;DHT22;38105;52.968;5.974;2022-08-20T00:15:23;20.00;99.90
52107;DHT22;38105;52.968;5.974;2022-08-20T00:17:50;20.00;99.90
52107;DHT22;38105;52.968;5.974;2022-08-20T00:20:20;19.90;99.90
52107;DHT22;38105;52.968;5.974;2022-08-20T00:22:46;20.00;99.90
52107;DHT22;38105;52.968;5.974;2022-08-20T00:25:12;20.00;99.90
52107;DHT22;38105;52.968;5.974;2022-08-20T00:27:38;19.90;99.90
52107;DHT22;38105;52.968;5.974;2022-08-20T00:30:06;19.90;99.90
52107;DHT22;38105;52.968;5.974;2022-08-20T00:32:44;20.00;99.90
52107;DHT22;38105;52.968;5.974;2022-08-20T00:35:10;20.00;99.90
52107;DHT22;38105;52.968;5.974;2022-08-20T00:37:36;20.00;99.90
52107;DHT22;38105;52.968;5.974;2022-08-20T00:40:04;20.00;99.90
52107;DHT22;38105;52.968;5.974;2022-08-20T00:42:38;19.90;99.90
52107;DHT22;38105;52.968;5.974;2022-08-20T00:45:03;19.90;99.90
52107;DHT22;38105;52.968;5.974;2022-08-20T00:47:29;19.90;99.90
52107;DHT22;38105;52.968;5.974;2022-08-20T00:49:55;19.80;99.90
52107;DHT22;38105;52.968;5.974;2022-08-20T00:52:20;19.80;99.90
52107;DHT22;38105;52.968;5.974;2022-08-20T00:54:53;19.60;99.90
52107;DHT22;38105;52.968;5.974;2022-08-20T00:57:35;19.70;99.90
52107;DHT22;38105;52.968;5.974;2022-08-20T01:00:06;19.50;99.90
52107;DHT22;38105;52.968;5.974;2022-08-20T01:02:34;19.50;99.90
52107;DHT22;38105;52.968;5.974;2022-08-20T01:05:00;19.50;99.90
52107;DHT22;38105;52.968;5.974;2022-08-20T01:07:30;19.30;99.90
52107;DHT22;38105;52.968;5.974;2022-08-20T01:10:10;19.30;99.90
52107;DHT22;38105;52.968;5.974;2022-08-20T01:12:41;19.30;99.90
52107;DHT22;38105;52.968;5.974;2022-08-20T01:15:10;19.20;99.90
52107;DHT22;38105;52.968;5.974;2022-08-20T01:17:42;19.20;99.90
52107;DHT22;38105;52.968;5.974;2022-08-20T01:20:14;19.10;99.90
52107;DHT22;38105;52.968;5.974;2022-08-20T01:23:07;19.00;99.90
52107;DHT22;38105;52.968;5.974;2022-08-20T01:26:02;19.00;99.90
52107;DHT22;38105;52.968;5.974;2022-08-20T01:31:02;18.90;99.90
52107;DHT22;38105;52.968;5.974;2022-08-20T01:33:28;18.90;99.90
52107;DHT22;38105;52.968;5.974;2022-08-20T01:35:54;19.00;99.90
52107;DHT22;38105;52.968;5.974;2022-08-20T01:38:20;19.00;99.90
52107;DHT22;38105;52.968;5.974;2022-08-20T01:41:09;18.80;99.90
52107;DHT22;38105;52.968;5.974;2022-08-20T01:43:37;18.90;99.90
52107;DHT22;38105;52.968;5.974;2022-08-20T01:46:03;18.90;99.90
52107;DHT22;38105;52.968;5.974;2022-08-20T01:48:29;18.90;99.90
52107;DHT22;38105;52.968;5.974;2022-08-20T01:51:04;18.90;99.90
52107;DHT22;38105;52.968;5.974;2022-08-20T01:53:37;18.80;99.90
52107;DHT22;38105;52.968;5.974;2022-08-20T01:56:05;19.00;99.90
52107;DHT22;38105;52.968;5.974;2022-08-20T01:58:33;18.90;99.90
52107;DHT22;38105;52.968;5.974;2022-08-20T02:00:59;19.00;99.90
52107;DHT22;38105;52.968;5.974;2022-08-20T02:03:25;19.00;99.90
52107;DHT22;38105;52.968;5.974;2022-08-20T02:05:51;19.00;99.90
52107;DHT22;38105;52.968;5.974;2022-08-20T02:08:20;18.90;99.90
52107;DHT22;38105;52.968;5.974;2022-08-20T02:10:47;18.90;99.90
52107;DHT22;38105;52.968;5.974;2022-08-20T02:13:13;18.90;99.90
52107;DHT22;38105;52.968;5.974;2022-08-20T02:15:39;18.90;99.90
52107;DHT22;38105;52.968;5.974;2022-08-20T02:18:08;18.90;99.90
52107;DHT22;38105;52.968;5.974;2022-08-20T02:20:35;19.00;99.90
52107;DHT22;38105;52.968;5.974;2022-08-20T02:23:02;18.90;99.90
52107;DHT22;38105;52.968;5.974;2022-08-20T02:25:30;19.00;99.90
52107;DHT22;38105;52.968;5.974;2022-08-20T02:27:56;18.90;99.90
52107;DHT22;38105;52.968;5.974;2022-08-20T02:30:34;18.90;99.90
52107;DHT22;38105;52.968;5.974;2022-08-20T02:33:03;18.90;99.90
52107;DHT22;38105;52.968;5.974;2022-08-20T02:35:29;18.80;99.90
52107;DHT22;38105;52.968;5.974;2022-08-20T02:37:56;18.80;99.90
52107;DHT22;38105;52.968;5.974;2022-08-20T02:40:25;18.80;99.90
52107;DHT22;38105;52.968;5.974;2022-08-20T02:42:52;18.90;99.90
52107;DHT22;38105;52.968;5.974;2022-08-20T02:45:19;18.90;99.90
52107;DHT22;38105;52.968;5.974;2022-08-20T02:47:46;18.70;99.90
52107;DHT22;38105;52.968;5.974;2022-08-20T02:50:15;18.70;99.90
52107;DHT22;38105;52.968;5.974;2022-08-20T02:52:42;18.60;99.90
52107;DHT22;38105;52.968;5.974;2022-08-20T02:55:10;18.70;99.90
52107;DHT22;38105;52.968;5.974;2022-08-20T02:57:36;18.60;99.90
52107;DHT22;38105;52.968;5.974;2022-08-20T03:00:06;18.60;99.90
52107;DHT22;38105;52.968;5.974;2022-08-20T03:02:32;18.70;99.90
52107;DHT22;38105;52.968;5.974;2022-08-20T03:04:57;18.70;99.90
52107;DHT22;38105;52.968;5.974;2022-08-20T03:07:23;18.60;99.90
52107;DHT22;38105;52.968;5.974;2022-08-20T03:09:49;18.70;99.90
52107;DHT22;38105;52.968;5.974;2022-08-20T03:12:14;18.70;99.90
52107;DHT22;38105;52.968;5.974;2022-08-20T03:14:40;18.70;99.90
52107;DHT22;38105;52.968;5.974;2022-08-20T03:17:06;18.60;99.90
52107;DHT22;38105;52.968;5.974;2022-08-20T03:19:32;18.70;99.90
52107;DHT22;38105;52.968;5.974;2022-08-20T03:21:58;18.70;99.90
52107;DHT22;38105;52.968;5.974;2022-08-20T03:24:23;18.50;99.90
52107;DHT22;38105;52.968;5.974;2022-08-20T03:26:49;18.60;99.90
52107;DHT22;38105;52.968;5.974;2022-08-20T03:29:14;18.50;99.90
52107;DHT22;38105;52.968;5.974;2022-08-20T03:31:40;18.50;99.90
52107;DHT22;38105;52.968;5.974;2022-08-20T03:34:06;18.50;99.90
52107;DHT22;38105;52.968;5.974;2022-08-20T03:36:31;18.40;99.90
52107;DHT22;38105;52.968;5.974;2022-08-20T03:38:59;18.30;99.90
52107;DHT22;38105;52.968;5.974;2022-08-20T03:41:26;18.20;99.90
52107;DHT22;38105;52.968;5.974;2022-08-20T03:43:53;18.20;99.90
52107;DHT22;38105;52.968;5.974;2022-08-20T03:46:19;18.30;99.90
52107;DHT22;38105;52.968;5.974;2022-08-20T03:48:45;18.20;99.90
52107;DHT22;38105;52.968;5.974;2022-08-20T03:51:10;18.10;99.90
52107;DHT22;38105;52.968;5.974;2022-08-20T03:53:36;18.00;99.90
52107;DHT22;38105;52.968;5.974;2022-08-20T03:56:05;18.00;99.90
52107;DHT22;38105;52.968;5.974;2022-08-20T03:58:32;18.00;99.90
52107;DHT22;38105;52.968;5.974;2022-08-20T04:00:58;17.90;99.90
52107;DHT22;38105;52.968;5.974;2022-08-20T04:03:23;17.90;99.90
52107;DHT22;38105;52.968;5.974;2022-08-20T04:05:52;18.00;99.90
52107;DHT22;38105;52.968;5.974;2022-08-20T04:08:22;17.90;99.90
52107;DHT22;38105;52.968;5.974;2022-08-20T04:10:49;17.90;99.90
52107;DHT22;38105;52.968;5.974;2022-08-20T04:13:18;17.90;99.90
52107;DHT22;38105;52.968;5.974;2022-08-20T04:15:44;17.80;99.90
52107;DHT22;38105;52.968;5.974;2022-08-20T04:18:11;18.00;99.90
52107;DHT22;38105;52.968;5.974;2022-08-20T04:20:40;17.90;99.90
52107;DHT22;38105;52.968;5.974;2022-08-20T04:23:06;17.80;99.90
52107;DHT22;38105;52.968;5.974;2022-08-20T04:25:35;17.90;99.90
52107;DHT22;38105;52.968;5.974;2022-08-20T04:28:06;17.90;99.90
52107;DHT22;38105;52.968;5.974;2022-08-20T04:30:32;17.80;99.90
52107;DHT22;38105;52.968;5.974;2022-08-20T04:32:58;17.80;99.90
52107;DHT22;38105;52.968;5.974;2022-08-20T04:35:24;17.80;99.90
52107;DHT22;38105;52.968;5.974;2022-08-20T04:38:00;17.70;99.90
52107;DHT22;38105;52.968;5.974;2022-08-20T04:40:27;17.60;99.90
52107;DHT22;38105;52.968;5.974;2022-08-20T04:43:12;17.50;99.90
52107;DHT22;38105;52.968;5.974;2022-08-20T04:45:37;17.40;99.90
52107;DHT22;38105;52.968;5.974;2022-08-20T04:48:05;17.40;99.90
52107;DHT22;38105;52.968;5.974;2022-08-20T04:50:36;17.40;99.90
52107;DHT22;38105;52.968;5.974;2022-08-20T04:53:05;17.20;99.90
52107;DHT22;38105;52.968;5.974;2022-08-20T04:55:34;17.20;99.90
52107;DHT22;38105;52.968;5.974;2022-08-20T04:58:09;17.20;99.90
52107;DHT22;38105;52.968;5.974;2022-08-20T05:00:35;17.20;99.90
52107;DHT22;38105;52.968;5.974;2022-08-20T05:03:01;17.30;99.90
52107;DHT22;38105;52.968;5.974;2022-08-20T05:05:27;17.10;99.90
52107;DHT22;38105;52.968;5.974;2022-08-20T05:07:53;17.20;99.90
52107;DHT22;38105;52.968;5.974;2022-08-20T05:10:19;17.10;99.90
52107;DHT22;38105;52.968;5.974;2022-08-20T05:12:46;17.10;99.90
52107;DHT22;38105;52.968;5.974;2022-08-20T05:15:12;17.20;99.90
52107;DHT22;38105;52.968;5.974;2022-08-20T05:17:41;17.10;99.90
52107;DHT22;38105;52.968;5.974;2022-08-20T05:20:11;17.20;99.90
52107;DHT22;38105;52.968;5.974;2022-08-20T05:22:37;17.20;99.90
52107;DHT22;38105;52.968;5.974;2022-08-20T05:25:03;17.40;99.90
52107;DHT22;38105;52.968;5.974;2022-08-20T05:27:30;18.00;99.90
52107;DHT22;38105;52.968;5.974;2022-08-20T05:30:00;19.00;99.90
52107;DHT22;38105;52.968;5.974;2022-08-20T05:32:26;20.30;99.90
52107;DHT22;38105;52.968;5.974;2022-08-20T05:34:52;21.30;99.90
52107;DHT22;38105;52.968;5.974;2022-08-20T05:37:19;22.20;99.90
52107;DHT22;38105;52.968;5.974;2022-08-20T05:39:45;22.90;99.90
52107;DHT22;38105;52.968;5.974;2022-08-20T05:42:11;23.60;99.90
52107;DHT22;38105;52.968;5.974;2022-08-20T05:44:37;24.20;99.90
52107;DHT22;38105;52.968;5.974;2022-08-20T05:47:04;25.00;99.90
52107;DHT22;38105;52.968;5.974;2022-08-20T05:49:30;25.40;99.90
52107;DHT22;38105;52.968;5.974;2022-08-20T05:51:56;25.60;99.90
52107;DHT22;38105;52.968;5.974;2022-08-20T05:54:23;25.80;99.90
52107;DHT22;38105;52.968;5.974;2022-08-20T05:56:49;25.60;99.90
52107;DHT22;38105;52.968;5.974;2022-08-20T05:59:15;25.50;99.90
52107;DHT22;38105;52.968;5.974;2022-08-20T06:01:42;25.70;99.90
52107;DHT22;38105;52.968;5.974;2022-08-20T06:04:09;26.00;99.90
52107;DHT22;38105;52.968;5.974;2022-08-20T06:06:56;26.50;99.90
52107;DHT22;38105;52.968;5.974;2022-08-20T06:09:25;27.20;99.90
52107;DHT22;38105;52.968;5.974;2022-08-20T06:11:50;27.90;99.90
52107;DHT22;38105;52.968;5.974;2022-08-20T06:14:16;28.50;99.90
52107;DHT22;38105;52.968;5.974;2022-08-20T06:16:42;29.20;99.90
52107;DHT22;38105;52.968;5.974;2022-08-20T06:19:09;29.90;99.90
52107;DHT22;38105;52.968;5.974;2022-08-20T06:21:35;30.20;99.90
52107;DHT22;38105;52.968;5.974;2022-08-20T06:24:01;30.30;99.90
52107;DHT22;38105;52.968;5.974;2022-08-20T06:26:27;30.20;99.30
52107;DHT22;38105;52.968;5.974;2022-08-20T06:28:52;30.60;99.20
52107;DHT22;38105;52.968;5.974;2022-08-20T06:31:18;31.30;98.00
52107;DHT22;38105;52.968;5.974;2022-08-20T06:33:44;31.60;97.60
52107;DHT22;38105;52.968;5.974;2022-08-20T06:36:09;32.10;96.90
52107;DHT22;38105;52.968;5.974;2022-08-20T06:38:35;32.60;96.20
52107;DHT22;38105;52.968;5.974;2022-08-20T06:41:01;32.30;95.20
52107;DHT22;38105;52.968;5.974;2022-08-20T06:43:27;31.30;95.30
52107;DHT22;38105;52.968;5.974;2022-08-20T06:45:53;30.40;96.00
52107;DHT22;38105;52.968;5.974;2022-08-20T06:48:22;29.60;96.40
52107;DHT22;38105;52.968;5.974;2022-08-20T06:50:48;29.00;96.90
52107;DHT22;38105;52.968;5.974;2022-08-20T06:53:18;29.60;98.00
52107;DHT22;38105;52.968;5.974;2022-08-20T06:55:48;30.70;96.30
52107;DHT22;38105;52.968;5.974;2022-08-20T06:58:14;31.70;95.80
52107;DHT22;38105;52.968;5.974;2022-08-20T07:00:42;32.60;94.70
52107;DHT22;38105;52.968;5.974;2022-08-20T07:03:08;33.00;93.30
52107;DHT22;38105;52.968;5.974;2022-08-20T07:05:39;33.80;93.00
52107;DHT22;38105;52.968;5.974;2022-08-20T07:08:09;34.20;92.20
52107;DHT22;38105;52.968;5.974;2022-08-20T07:10:34;34.50;91.80
52107;DHT22;38105;52.968;5.974;2022-08-20T07:13:00;34.90;91.20
52107;DHT22;38105;52.968;5.974;2022-08-20T07:15:26;35.20;90.20
52107;DHT22;38105;52.968;5.974;2022-08-20T07:17:55;35.50;90.00
52107;DHT22;38105;52.968;5.974;2022-08-20T07:20:21;35.90;87.30
52107;DHT22;38105;52.968;5.974;2022-08-20T07:22:46;36.20;87.60
52107;DHT22;38105;52.968;5.974;2022-08-20T07:25:15;36.20;85.60
52107;DHT22;38105;52.968;5.974;2022-08-20T07:27:42;36.30;83.70
52107;DHT22;38105;52.968;5.974;2022-08-20T07:30:12;36.60;85.10
52107;DHT22;38105;52.968;5.974;2022-08-20T07:32:56;36.60;81.30
52107;DHT22;38105;52.968;5.974;2022-08-20T07:35:22;36.20;83.50
52107;DHT22;38105;52.968;5.974;2022-08-20T07:37:50;36.60;83.00
52107;DHT22;38105;52.968;5.974;2022-08-20T07:40:22;36.60;80.80
52107;DHT22;38105;52.968;5.974;2022-08-20T07:42:48;36.90;80.80
52107;DHT22;38105;52.968;5.974;2022-08-20T07:45:16;36.80;81.60
52107;DHT22;38105;52.968;5.974;2022-08-20T07:47:44;37.20;82.40
52107;DHT22;38105;52.968;5.974;2022-08-20T07:50:12;37.30;80.90
52107;DHT22;38105;52.968;5.974;2022-08-20T07:52:39;37.40;79.30
52107;DHT22;38105;52.968;5.974;2022-08-20T07:55:07;37.30;79.60
52107;DHT22;38105;52.968;5.974;2022-08-20T07:57:34;37.30;79.40
52107;DHT22;38105;52.968;5.974;2022-08-20T07:59:59;37.60;80.20
52107;DHT22;38105;52.968;5.974;2022-08-20T08:02:26;37.60;79.70
52107;DHT22;38105;52.968;5.974;2022-08-20T08:04:52;37.80;79.10
52107;DHT22;38105;52.968;5.974;2022-08-20T08:07:18;37.80;79.50
52107;DHT22;38105;52.968;5.974;2022-08-20T08:09:45;38.00;76.00
52107;DHT22;38105;52.968;5.974;2022-08-20T08:12:12;38.20;78.00
52107;DHT22;38105;52.968;5.974;2022-08-20T08:14:40;38.20;76.40
52107;DHT22;38105;52.968;5.974;2022-08-20T08:17:11;38.50;76.00
52107;DHT22;38105;52.968;5.974;2022-08-20T08:19:45;38.30;75.60
52107;DHT22;38105;52.968;5.974;2022-08-20T08:22:14;37.80;73.30
52107;DHT22;38105;52.968;5.974;2022-08-20T08:24:42;37.60;75.20
52107;DHT22;38105;52.968;5.974;2022-08-20T08:27:09;37.80;77.30
52107;DHT22;38105;52.968;5.974;2022-08-20T08:29:35;38.10;76.20
52107;DHT22;38105;52.968;5.974;2022-08-20T08:32:05;38.00;76.20
52107;DHT22;38105;52.968;5.974;2022-08-20T08:34:33;38.30;75.60
52107;DHT22;38105;52.968;5.974;2022-08-20T08:36:59;38.10;73.40
52107;DHT22;38105;52.968;5.974;2022-08-20T08:39:31;38.30;75.10
52107;DHT22;38105;52.968;5.974;2022-08-20T08:41:59;38.50;72.90
52107;DHT22;38105;52.968;5.974;2022-08-20T08:44:32;37.90;73.00
52107;DHT22;38105;52.968;5.974;2022-08-20T08:47:06;37.70;72.70
52107;DHT22;38105;52.968;5.974;2022-08-20T08:49:38;37.70;71.70
52107;DHT22;38105;52.968;5.974;2022-08-20T08:52:10;37.30;74.00
52107;DHT22;38105;52.968;5.974;2022-08-20T08:54:42;37.70;72.90
52107;DHT22;38105;52.968;5.974;2022-08-20T08:57:10;37.50;71.80
52107;DHT22;38105;52.968;5.974;2022-08-20T08:59:35;37.60;74.00
52107;DHT22;38105;52.968;5.974;2022-08-20T09:02:01;37.70;73.50
52107;DHT22;38105;52.968;5.974;2022-08-20T09:04:32;37.80;73.80
52107;DHT22;38105;52.968;5.974;2022-08-20T09:07:01;37.70;70.60
52107;DHT22;38105;52.968;5.974;2022-08-20T09:09:34;37.60;74.10
52107;DHT22;38105;52.968;5.974;2022-08-20T09:12:08;37.90;73.40
52107;DHT22;38105;52.968;5.974;2022-08-20T09:14:34;37.90;71.70
52107;DHT22;38105;52.968;5.974;2022-08-20T09:17:00;38.10;73.20
52107;DHT22;38105;52.968;5.974;2022-08-20T09:19:26;38.00;71.80
52107;DHT22;38105;52.968;5.974;2022-08-20T09:21:52;37.80;72.20
52107;DHT22;38105;52.968;5.974;2022-08-20T09:24:17;38.00;72.40
52107;DHT22;38105;52.968;5.974;2022-08-20T09:26:43;38.20;71.90
52107;DHT22;38105;52.968;5.974;2022-08-20T09:29:09;37.80;71.00
52107;DHT22;38105;52.968;5.974;2022-08-20T09:31:35;37.80;73.60
52107;DHT22;38105;52.968;5.974;2022-08-20T09:34:01;38.10;71.80
52107;DHT22;38105;52.968;5.974;2022-08-20T09:36:26;37.70;71.40
52107;DHT22;38105;52.968;5.974;2022-08-20T09:38:53;36.80;73.10
52107;DHT22;38105;52.968;5.974;2022-08-20T09:41:19;35.40;74.50
52107;DHT22;38105;52.968;5.974;2022-08-20T09:43:45;35.00;73.70
52107;DHT22;38105;52.968;5.974;2022-08-20T09:46:11;35.70;76.30
52107;DHT22;38105;52.968;5.974;2022-08-20T09:48:36;35.70;73.20
52107;DHT22;38105;52.968;5.974;2022-08-20T09:51:02;35.10;72.70
52107;DHT22;38105;52.968;5.974;2022-08-20T09:53:28;34.10;74.10
52107;DHT22;38105;52.968;5.974;2022-08-20T09:55:55;32.80;74.70
52107;DHT22;38105;52.968;5.974;2022-08-20T10:01:10;32.70;76.10
52107;DHT22;38105;52.968;5.974;2022-08-20T10:03:40;33.50;77.60
52107;DHT22;38105;52.968;5.974;2022-08-20T10:06:06;33.50;74.70
52107;DHT22;38105;52.968;5.974;2022-08-20T10:08:32;33.00;76.20
52107;DHT22;38105;52.968;5.974;2022-08-20T10:10:57;32.80;75.40
52107;DHT22;38105;52.968;5.974;2022-08-20T10:13:23;32.20;78.30
52107;DHT22;38105;52.968;5.974;2022-08-20T10:15:49;31.50;79.00
52107;DHT22;38105;52.968;5.974;2022-08-20T10:18:15;31.20;79.20
52107;DHT22;38105;52.968;5.974;2022-08-20T10:20:40;32.00;80.90
52107;DHT22;38105;52.968;5.974;2022-08-20T10:23:06;32.30;78.20
52107;DHT22;38105;52.968;5.974;2022-08-20T10:25:32;32.10;76.80
52107;DHT22;38105;52.968;5.974;2022-08-20T10:27:59;32.20;74.10
52107;DHT22;38105;52.968;5.974;2022-08-20T10:30:24;32.10;77.50
52107;DHT22;38105;52.968;5.974;2022-08-20T10:32:50;31.90;78.20
52107;DHT22;38105;52.968;5.974;2022-08-20T10:35:16;31.90;79.90
52107;DHT22;38105;52.968;5.974;2022-08-20T10:37:42;32.00;78.00
52107;DHT22;38105;52.968;5.974;2022-08-20T10:40:08;31.90;78.40
52107;DHT22;38105;52.968;5.974;2022-08-20T10:42:35;31.90;78.00
52107;DHT22;38105;52.968;5.974;2022-08-20T10:45:01;31.60;78.50
52107;DHT22;38105;52.968;5.974;2022-08-20T10:47:29;31.80;79.00
52107;DHT22;38105;52.968;5.974;2022-08-20T10:49:56;32.00;80.00
52107;DHT22;38105;52.968;5.974;2022-08-20T10:52:23;31.60;76.90
52107;DHT22;38105;52.968;5.974;2022-08-20T10:54:50;30.90;77.00
52107;DHT22;38105;52.968;5.974;2022-08-20T10:57:22;31.20;79.20
52107;DHT22;38105;52.968;5.974;2022-08-20T10:59:50;31.00;76.90
52107;DHT22;38105;52.968;5.974;2022-08-20T11:02:17;31.10;78.00
52107;DHT22;38105;52.968;5.974;2022-08-20T11:04:44;31.20;77.90
52107;DHT22;38105;52.968;5.974;2022-08-20T11:09:44;31.40;77.60
52107;DHT22;38105;52.968;5.974;2022-08-20T11:12:10;31.60;78.00
52107;DHT22;38105;52.968;5.974;2022-08-20T11:14:35;31.40;78.20
52107;DHT22;38105;52.968;5.974;2022-08-20T11:17:02;31.30;77.80
52107;DHT22;38105;52.968;5.974;2022-08-20T11:19:28;31.10;75.90
52107;DHT22;38105;52.968;5.974;2022-08-20T11:21:54;31.20;76.60
52107;DHT22;38105;52.968;5.974;2022-08-20T11:24:20;31.10;75.20
52107;DHT22;38105;52.968;5.974;2022-08-20T11:26:46;31.10;76.10
52107;DHT22;38105;52.968;5.974;2022-08-20T11:29:13;30.90;75.30
52107;DHT22;38105;52.968;5.974;2022-08-20T11:31:39;30.50;74.80
52107;DHT22;38105;52.968;5.974;2022-08-20T11:34:05;30.40;74.80
52107;DHT22;38105;52.968;5.974;2022-08-20T11:36:31;30.40;76.90
52107;DHT22;38105;52.968;5.974;2022-08-20T11:38:56;30.30;77.30
52107;DHT22;38105;52.968;5.974;2022-08-20T11:41:22;30.30;77.60
52107;DHT22;38105;52.968;5.974;2022-08-20T11:43:48;30.30;75.50
52107;DHT22;38105;52.968;5.974;2022-08-20T11:46:13;30.30;76.10
52107;DHT22;38105;52.968;5.974;2022-08-20T11:48:39;30.40;77.60
52107;DHT22;38105;52.968;5.974;2022-08-20T11:51:05;30.30;77.50
52107;DHT22;38105;52.968;5.974;2022-08-20T11:53:30;30.00;76.50
52107;DHT22;38105;52.968;5.974;2022-08-20T11:55:56;29.70;77.30
52107;DHT22;38105;52.968;5.974;2022-08-20T11:58:22;29.70;77.30
52107;DHT22;38105;52.968;5.974;2022-08-20T12:00:47;29.60;77.80
52107;DHT22;38105;52.968;5.974;2022-08-20T12:03:13;29.60;79.60
52107;DHT22;38105;52.968;5.974;2022-08-20T12:05:42;29.50;80.50
52107;DHT22;38105;52.968;5.974;2022-08-20T12:08:09;29.20;79.40
52107;DHT22;38105;52.968;5.974;2022-08-20T12:10:36;29.10;79.30
52107;DHT22;38105;52.968;5.974;2022-08-20T12:13:01;28.80;79.80
52107;DHT22;38105;52.968;5.974;2022-08-20T12:15:27;28.60;79.30
52107;DHT22;38105;52.968;5.974;2022-08-20T12:17:53;28.50;78.70
52107;DHT22;38105;52.968;5.974;2022-08-20T12:20:20;28.60;77.70
52107;DHT22;38105;52.968;5.974;2022-08-20T12:22:46;28.60;80.50
52107;DHT22;38105;52.968;5.974;2022-08-20T12:25:12;28.40;77.70
52107;DHT22;38105;52.968;5.974;2022-08-20T12:27:39;28.10;77.40
52107;DHT22;38105;52.968;5.974;2022-08-20T12:30:11;28.00;79.40
52107;DHT22;38105;52.968;5.974;2022-08-20T12:32:37;28.00;79.90
52107;DHT22;38105;52.968;5.974;2022-08-20T12:35:05;27.80;79.80
52107;DHT22;38105;52.968;5.974;2022-08-20T12:37:31;27.90;80.20
52107;DHT22;38105;52.968;5.974;2022-08-20T12:39:58;28.20;82.20
52107;DHT22;38105;52.968;5.974;2022-08-20T12:42:25;28.30;82.00
52107;DHT22;38105;52.968;5.974;2022-08-20T12:44:52;28.20;81.90
52107;DHT22;38105;52.968;5.974;2022-08-20T12:47:24;28.00;81.80
52107;DHT22;38105;52.968;5.974;2022-08-20T12:49:54;27.90;82.40
52107;DHT22;38105;52.968;5.974;2022-08-20T12:52:21;27.70;81.00
52107;DHT22;38105;52.968;5.974;2022-08-20T12:54:47;27.90;80.50
52107;DHT22;38105;52.968;5.974;2022-08-20T12:59:47;28.30;79.10
52107;DHT22;38105;52.968;5.974;2022-08-20T13:02:13;28.60;81.90
52107;DHT22;38105;52.968;5.974;2022-08-20T13:04:39;28.70;82.00
52107;DHT22;38105;52.968;5.974;2022-08-20T13:07:04;28.60;81.20
52107;DHT22;38105;52.968;5.974;2022-08-20T13:09:31;28.50;81.10
52107;DHT22;38105;52.968;5.974;2022-08-20T13:11:57;28.50;81.80
52107;DHT22;38105;52.968;5.974;2022-08-20T13:14:23;28.40;79.40
52107;DHT22;38105;52.968;5.974;2022-08-20T13:16:57;28.00;79.40
52107;DHT22;38105;52.968;5.974;2022-08-20T13:19:25;27.80;81.10
52107;DHT22;38105;52.968;5.974;2022-08-20T13:21:51;27.60;82.70
52107;DHT22;38105;52.968;5.974;2022-08-20T13:24:17;27.40;84.10
52107;DHT22;38105;52.968;5.974;2022-08-20T13:26:43;27.60;83.80
52107;DHT22;38105;52.968;5.974;2022-08-20T13:29:08;27.50;82.60
52107;DHT22;38105;52.968;5.974;2022-08-20T13:31:34;27.60;82.50
52107;DHT22;38105;52.968;5.974;2022-08-20T13:34:00;27.40;82.10
52107;DHT22;38105;52.968;5.974;2022-08-20T13:36:25;27.20;83.80
52107;DHT22;38105;52.968;5.974;2022-08-20T13:38:51;27.10;83.00
52107;DHT22;38105;52.968;5.974;2022-08-20T13:41:17;27.00;81.20
52107;DHT22;38105;52.968;5.974;2022-08-20T13:43:42;26.80;82.00
52107;DHT22;38105;52.968;5.974;2022-08-20T13:46:08;26.80;84.40
52107;DHT22;38105;52.968;5.974;2022-08-20T13:48:34;26.90;85.20
52107;DHT22;38105;52.968;5.974;2022-08-20T13:50:59;26.80;86.00
52107;DHT22;38105;52.968;5.974;2022-08-20T13:53:25;26.90;85.90
52107;DHT22;38105;52.968;5.974;2022-08-20T13:55:51;27.10;84.70
52107;DHT22;38105;52.968;5.974;2022-08-20T13:58:17;27.20;85.30
52107;DHT22;38105;52.968;5.974;2022-08-20T14:00:44;27.20;84.20
52107;DHT22;38105;52.968;5.974;2022-08-20T14:03:11;27.10;82.80
52107;DHT22;38105;52.968;5.974;2022-08-20T14:05:37;27.10;84.40
52107;DHT22;38105;52.968;5.974;2022-08-20T14:08:06;27.00;85.20
52107;DHT22;38105;52.968;5.974;2022-08-20T14:10:32;27.10;86.90
52107;DHT22;38105;52.968;5.974;2022-08-20T14:12:58;27.20;85.70
52107;DHT22;38105;52.968;5.974;2022-08-20T14:15:24;27.50;85.70
52107;DHT22;38105;52.968;5.974;2022-08-20T14:17:53;27.30;83.80
52107;DHT22;38105;52.968;5.974;2022-08-20T14:20:22;27.20;83.70
52107;DHT22;38105;52.968;5.974;2022-08-20T14:22:48;27.30;84.20
52107;DHT22;38105;52.968;5.974;2022-08-20T14:25:16;27.30;83.90
52107;DHT22;38105;52.968;5.974;2022-08-20T14:27:42;27.00;82.10
52107;DHT22;38105;52.968;5.974;2022-08-20T14:30:10;27.00;82.20
52107;DHT22;38105;52.968;5.974;2022-08-20T14:32:37;26.70;83.40
52107;DHT22;38105;52.968;5.974;2022-08-20T14:35:04;26.40;82.70
52107;DHT22;38105;52.968;5.974;2022-08-20T14:37:32;26.20;86.30
52107;DHT22;38105;52.968;5.974;2022-08-20T14:40:00;26.00;84.70
52107;DHT22;38105;52.968;5.974;2022-08-20T14:42:29;26.00;84.00
52107;DHT22;38105;52.968;5.974;2022-08-20T14:44:55;26.00;83.80
52107;DHT22;38105;52.968;5.974;2022-08-20T14:49:48;26.00;85.70
52107;DHT22;38105;52.968;5.974;2022-08-20T14:52:15;26.00;83.40
52107;DHT22;38105;52.968;5.974;2022-08-20T14:54:42;26.10;85.50
52107;DHT22;38105;52.968;5.974;2022-08-20T14:57:09;26.20;86.00
52107;DHT22;38105;52.968;5.974;2022-08-20T14:59:35;26.20;85.60
52107;DHT22;38105;52.968;5.974;2022-08-20T15:02:04;26.10;86.30
52107;DHT22;38105;52.968;5.974;2022-08-20T15:04:31;26.20;84.70
52107;DHT22;38105;52.968;5.974;2022-08-20T15:06:56;26.10;85.10
52107;DHT22;38105;52.968;5.974;2022-08-20T15:09:22;26.30;86.90
52107;DHT22;38105;52.968;5.974;2022-08-20T15:11:48;26.20;86.30
52107;DHT22;38105;52.968;5.974;2022-08-20T15:14:16;26.20;86.40
52107;DHT22;38105;52.968;5.974;2022-08-20T15:16:43;26.10;85.60
52107;DHT22;38105;52.968;5.974;2022-08-20T15:19:09;26.00;85.60
52107;DHT22;38105;52.968;5.974;2022-08-20T15:21:35;26.00;85.60
52107;DHT22;38105;52.968;5.974;2022-08-20T15:24:00;25.70;86.90
52107;DHT22;38105;52.968;5.974;2022-08-20T15:26:26;25.60;87.40
52107;DHT22;38105;52.968;5.974;2022-08-20T15:28:53;25.60;87.70
52107;DHT22;38105;52.968;5.974;2022-08-20T15:31:19;25.60;87.80
52107;DHT22;38105;52.968;5.974;2022-08-20T15:33:45;25.60;87.00
52107;DHT22;38105;52.968;5.974;2022-08-20T15:36:10;25.60;86.60
52107;DHT22;38105;52.968;5.974;2022-08-20T15:38:36;25.50;87.60
52107;DHT22;38105;52.968;5.974;2022-08-20T15:41:03;25.60;89.40
52107;DHT22;38105;52.968;5.974;2022-08-20T15:43:30;25.50;87.90